sensor_id;sensor_type;location;lat;lon;timestamp;P1;durP1;ratioP1;P2;durP2;ratioP2
41661;SDS011;27351;45.992;12.666;2024-02-16T00:00:03;34.72;;;17.35;;
41661;SDS011;27351;45.992;12.666;2024-02-16T00:02:37;31.35;;;17.42;;
41661;SDS011;27351;45.992;12.666;2024-02-16T00:05:03;28.58;;;15.90;;
41661;SDS011;27351;45.992;12.666;2024-02-16T00:07:30;32.65;;;16.65;;
41661;SDS011;27351;45.992;12.666;2024-02-16T00:09:56;32.50;;;15.93;;
41661;SDS011;27351;45.992;12.666;2024-02-16T00:12:21;32.47;;;16.58;;
41661;SDS011;27351;45.992;12.666;2024-02-16T00:14:47;27.75;;;15.00;;
41661;SDS011;27351;45.992;12.666;2024-02-16T00:17:13;30.00;;;16.17;;
41661;SDS011;27351;45.992;12.666;2024-02-16T00:19:38;31.93;;;17.80;;
41661;SDS011;27351;45.992;12.666;2024-02-16T00:22:04;34.97;;;18.30;;
41661;SDS011;27351;45.992;12.666;2024-02-16T00:24:33;30.98;;;17.58;;
41661;SDS011;27351;45.992;12.666;2024-02-16T00:26:59;32.90;;;17.45;;
41661;SDS011;27351;45.992;12.666;2024-02-16T00:29:25;30.85;;;16.15;;
41661;SDS011;27351;45.992;12.666;2024-02-16T00:31:50;27.77;;;15.73;;
41661;SDS011;27351;45.992;12.666;2024-02-16T00:34:16;30.50;;;15.43;;
41661;SDS011;27351;45.992;12.666;2024-02-16T00:36:41;27.95;;;15.52;;
41661;SDS011;27351;45.992;12.666;2024-02-16T00:39:07;25.77;;;14.73;;
41661;SDS011;27351;45.992;12.666;2024-02-16T00:41:32;24.70;;;14.05;;
41661;SDS011;27351;45.992;12.666;2024-02-16T00:43:58;26.08;;;14.75;;
41661;SDS011;27351;45.992;12.666;2024-02-16T00:46:23;30.98;;;16.23;;
41661;SDS011;27351;45.992;12.666;2024-02-16T00:48:49;32.35;;;16.48;;
41661;SDS011;27351;45.992;12.666;2024-02-16T00:51:15;25.67;;;14.40;;
41661;SDS011;27351;45.992;12.666;2024-02-16T00:53:41;33.57;;;17.83;;
41661;SDS011;27351;45.992;12.666;2024-02-16T00:56:06;28.10;;;15.30;;
41661;SDS011;27351;45.992;12.666;2024-02-16T00:58:32;29.70;;;15.30;;
41661;SDS011;27351;45.992;12.666;2024-02-16T01:00:58;29.48;;;16.95;;
41661;SDS011;27351;45.992;12.666;2024-02-16T01:03:24;33.95;;;15.88;;
41661;SDS011;27351;45.992;12.666;2024-02-16T01:05:54;35.15;;;19.23;;
41661;SDS011;27351;45.992;12.666;2024-02-16T01:08:19;35.65;;;16.70;;
41661;SDS011;27351;45.992;12.666;2024-02-16T01:10:45;32.38;;;16.02;;
41661;SDS011;27351;45.992;12.666;2024-02-16T01:13:11;31.60;;;15.00;;
41661;SDS011;27351;45.992;12.666;2024-02-16T01:15:37;31.07;;;16.17;;
41661;SDS011;27351;45.992;12.666;2024-02-16T01:18:04;26.27;;;15.88;;
41661;SDS011;27351;45.992;12.666;2024-02-16T01:20:29;29.48;;;15.93;;
41661;SDS011;27351;45.992;12.666;2024-02-16T01:22:57;29.00;;;16.00;;
41661;SDS011;27351;45.992;12.666;2024-02-16T01:25:22;30.83;;;16.07;;
41661;SDS011;27351;45.992;12.666;2024-02-16T01:27:48;28.90;;;15.70;;
41661;SDS011;27351;45.992;12.666;2024-02-16T01:30:14;27.63;;;15.68;;
41661;SDS011;27351;45.992;12.666;2024-02-16T01:32:40;27.40;;;15.45;;
41661;SDS011;27351;45.992;12.666;2024-02-16T01:35:06;30.55;;;15.40;;
41661;SDS011;27351;45.992;12.666;2024-02-16T01:37:32;26.90;;;14.70;;
41661;SDS011;27351;45.992;12.666;2024-02-16T01:39:57;29.17;;;15.53;;
41661;SDS011;27351;45.992;12.666;2024-02-16T01:42:24;27.83;;;15.00;;
41661;SDS011;27351;45.992;12.666;2024-02-16T01:44:49;26.98;;;14.00;;
41661;SDS011;27351;45.992;12.666;2024-02-16T01:47:15;24.75;;;14.30;;
41661;SDS011;27351;45.992;12.666;2024-02-16T01:49:41;30.00;;;14.90;;
41661;SDS011;27351;45.992;12.666;2024-02-16T01:52:06;27.87;;;14.20;;
41661;SDS011;27351;45.992;12.666;2024-02-16T01:54:32;29.30;;;14.13;;
41661;SDS011;27351;45.992;12.666;2024-02-16T01:56:58;25.60;;;12.55;;
41661;SDS011;27351;45.992;12.666;2024-02-16T01:59:25;23.70;;;12.63;;
41661;SDS011;27351;45.992;12.666;2024-02-16T02:01:50;26.08;;;14.10;;
41661;SDS011;27351;45.992;12.666;2024-02-16T02:04:16;26.83;;;13.90;;
41661;SDS011;27351;45.992;12.666;2024-02-16T02:06:42;24.00;;;13.23;;
41661;SDS011;27351;45.992;12.666;2024-02-16T02:09:07;30.87;;;13.83;;
41661;SDS011;27351;45.992;12.666;2024-02-16T02:11:34;21.80;;;12.60;;
41661;SDS011;27351;45.992;12.666;2024-02-16T02:14:00;23.15;;;13.07;;
41661;SDS011;27351;45.992;12.666;2024-02-16T02:16:25;21.88;;;11.65;;
41661;SDS011;27351;45.992;12.666;2024-02-16T02:18:52;23.23;;;13.00;;
41661;SDS011;27351;45.992;12.666;2024-02-16T02:21:17;28.37;;;14.43;;
41661;SDS011;27351;45.992;12.666;2024-02-16T02:23:43;25.33;;;13.10;;
41661;SDS011;27351;45.992;12.666;2024-02-16T02:26:09;26.88;;;13.63;;
41661;SDS011;27351;45.992;12.666;2024-02-16T02:28:34;27.10;;;13.60;;
41661;SDS011;27351;45.992;12.666;2024-02-16T02:31:00;22.67;;;11.93;;
41661;SDS011;27351;45.992;12.666;2024-02-16T02:33:25;22.83;;;11.73;;
41661;SDS011;27351;45.992;12.666;2024-02-16T02:35:51;22.88;;;12.10;;
41661;SDS011;27351;45.992;12.666;2024-02-16T02:38:17;21.75;;;12.20;;
41661;SDS011;27351;45.992;12.666;2024-02-16T02:40:42;22.70;;;12.68;;
41661;SDS011;27351;45.992;12.666;2024-02-16T02:43:08;24.30;;;13.32;;
41661;SDS011;27351;45.992;12.666;2024-02-16T02:45:34;24.00;;;12.85;;
41661;SDS011;27351;45.992;12.666;2024-02-16T02:47:59;26.73;;;14.27;;
41661;SDS011;27351;45.992;12.666;2024-02-16T02:50:25;25.53;;;13.50;;
41661;SDS011;27351;45.992;12.666;2024-02-16T02:52:50;24.63;;;12.17;;
41661;SDS011;27351;45.992;12.666;2024-02-16T02:55:16;26.73;;;13.07;;
41661;SDS011;27351;45.992;12.666;2024-02-16T02:57:42;24.63;;;13.17;;
41661;SDS011;27351;45.992;12.666;2024-02-16T03:00:07;23.53;;;12.40;;
41661;SDS011;27351;45.992;12.666;2024-02-16T03:02:37;18.00;;;9.57;;
41661;SDS011;27351;45.992;12.666;2024-02-16T03:05:03;20.17;;;9.63;;
41661;SDS011;27351;45.992;12.666;2024-02-16T03:07:29;20.07;;;10.73;;
41661;SDS011;27351;45.992;12.666;2024-02-16T03:09:55;19.77;;;11.03;;
41661;SDS011;27351;45.992;12.666;2024-02-16T03:12:20;20.60;;;10.73;;
41661;SDS011;27351;45.992;12.666;2024-02-16T03:14:46;18.73;;;11.07;;
41661;SDS011;27351;45.992;12.666;2024-02-16T03:17:11;20.60;;;10.87;;
41661;SDS011;27351;45.992;12.666;2024-02-16T03:19:37;18.70;;;10.57;;
41661;SDS011;27351;45.992;12.666;2024-02-16T03:22:02;21.37;;;11.50;;
41661;SDS011;27351;45.992;12.666;2024-02-16T03:24:28;20.93;;;11.43;;
41661;SDS011;27351;45.992;12.666;2024-02-16T03:26:53;24.63;;;12.43;;
41661;SDS011;27351;45.992;12.666;2024-02-16T03:29:19;20.23;;;11.53;;
41661;SDS011;27351;45.992;12.666;2024-02-16T03:31:44;18.03;;;10.57;;
41661;SDS011;27351;45.992;12.666;2024-02-16T03:34:10;21.83;;;10.93;;
41661;SDS011;27351;45.992;12.666;2024-02-16T03:36:36;19.33;;;10.93;;
41661;SDS011;27351;45.992;12.666;2024-02-16T03:39:01;20.67;;;10.63;;
41661;SDS011;27351;45.992;12.666;2024-02-16T03:41:27;16.25;;;9.45;;
41661;SDS011;27351;45.992;12.666;2024-02-16T03:43:53;18.53;;;10.53;;
41661;SDS011;27351;45.992;12.666;2024-02-16T03:46:19;18.23;;;9.73;;
41661;SDS011;27351;45.992;12.666;2024-02-16T03:48:45;20.05;;;9.82;;
41661;SDS011;27351;45.992;12.666;2024-02-16T03:51:10;19.27;;;10.60;;
41661;SDS011;27351;45.992;12.666;2024-02-16T03:53:36;19.25;;;9.93;;
41661;SDS011;27351;45.992;12.666;2024-02-16T03:56:02;20.73;;;10.60;;
41661;SDS011;27351;45.992;12.666;2024-02-16T03:58:27;20.43;;;10.53;;
41661;SDS011;27351;45.992;12.666;2024-02-16T04:00:53;19.13;;;10.03;;
41661;SDS011;27351;45.992;12.666;2024-02-16T04:03:18;18.57;;;10.20;;
41661;SDS011;27351;45.992;12.666;2024-02-16T04:05:44;21.57;;;10.00;;
41661;SDS011;27351;45.992;12.666;2024-02-16T04:08:10;16.95;;;9.45;;
41661;SDS011;27351;45.992;12.666;2024-02-16T04:10:36;19.27;;;9.68;;
41661;SDS011;27351;45.992;12.666;2024-02-16T04:13:01;17.80;;;9.80;;
41661;SDS011;27351;45.992;12.666;2024-02-16T04:15:27;21.92;;;11.07;;
41661;SDS011;27351;45.992;12.666;2024-02-16T04:17:53;19.90;;;10.80;;
41661;SDS011;27351;45.992;12.666;2024-02-16T04:20:19;19.50;;;9.83;;
41661;SDS011;27351;45.992;12.666;2024-02-16T04:22:45;23.38;;;10.65;;
41661;SDS011;27351;45.992;12.666;2024-02-16T04:25:11;21.27;;;10.67;;
41661;SDS011;27351;45.992;12.666;2024-02-16T04:27:36;18.33;;;10.38;;
41661;SDS011;27351;45.992;12.666;2024-02-16T04:30:02;19.02;;;10.48;;
41661;SDS011;27351;45.992;12.666;2024-02-16T04:32:28;17.13;;;9.80;;
41661;SDS011;27351;45.992;12.666;2024-02-16T04:34:53;18.83;;;10.20;;
41661;SDS011;27351;45.992;12.666;2024-02-16T04:37:21;21.50;;;10.55;;
41661;SDS011;27351;45.992;12.666;2024-02-16T04:39:47;18.83;;;9.50;;
41661;SDS011;27351;45.992;12.666;2024-02-16T04:42:13;16.60;;;9.07;;
41661;SDS011;27351;45.992;12.666;2024-02-16T04:44:38;21.42;;;10.40;;
41661;SDS011;27351;45.992;12.666;2024-02-16T04:47:04;18.48;;;10.02;;
41661;SDS011;27351;45.992;12.666;2024-02-16T04:49:30;18.27;;;10.57;;
41661;SDS011;27351;45.992;12.666;2024-02-16T04:51:55;21.43;;;9.97;;
41661;SDS011;27351;45.992;12.666;2024-02-16T04:54:21;22.17;;;10.57;;
41661;SDS011;27351;45.992;12.666;2024-02-16T04:56:48;18.20;;;9.57;;
41661;SDS011;27351;45.992;12.666;2024-02-16T04:59:14;21.77;;;10.80;;
41661;SDS011;27351;45.992;12.666;2024-02-16T05:01:39;18.08;;;9.50;;
41661;SDS011;27351;45.992;12.666;2024-02-16T05:04:05;18.97;;;9.13;;
41661;SDS011;27351;45.992;12.666;2024-02-16T05:06:32;21.52;;;9.48;;
41661;SDS011;27351;45.992;12.666;2024-02-16T05:08:57;21.73;;;9.77;;
41661;SDS011;27351;45.992;12.666;2024-02-16T05:11:23;18.50;;;9.27;;
41661;SDS011;27351;45.992;12.666;2024-02-16T05:13:50;20.35;;;8.90;;
41661;SDS011;27351;45.992;12.666;2024-02-16T05:16:16;19.08;;;10.15;;
41661;SDS011;27351;45.992;12.666;2024-02-16T05:18:42;20.33;;;8.93;;
41661;SDS011;27351;45.992;12.666;2024-02-16T05:21:07;22.17;;;10.75;;
41661;SDS011;27351;45.992;12.666;2024-02-16T05:23:33;18.77;;;9.50;;
41661;SDS011;27351;45.992;12.666;2024-02-16T05:25:59;18.55;;;10.02;;
41661;SDS011;27351;45.992;12.666;2024-02-16T05:28:24;24.27;;;10.63;;
41661;SDS011;27351;45.992;12.666;2024-02-16T05:30:50;23.55;;;11.95;;
41661;SDS011;27351;45.992;12.666;2024-02-16T05:33:15;27.27;;;13.50;;
41661;SDS011;27351;45.992;12.666;2024-02-16T05:35:41;33.58;;;14.85;;
41661;SDS011;27351;45.992;12.666;2024-02-16T05:38:09;28.85;;;13.63;;
41661;SDS011;27351;45.992;12.666;2024-02-16T05:40:47;24.20;;;12.20;;
41661;SDS011;27351;45.992;12.666;2024-02-16T05:43:22;17.58;;;9.30;;
41661;SDS011;27351;45.992;12.666;2024-02-16T05:45:49;17.05;;;8.65;;
41661;SDS011;27351;45.992;12.666;2024-02-16T05:48:14;16.87;;;7.93;;
41661;SDS011;27351;45.992;12.666;2024-02-16T05:50:40;18.40;;;8.67;;
41661;SDS011;27351;45.992;12.666;2024-02-16T05:53:06;17.30;;;8.50;;
41661;SDS011;27351;45.992;12.666;2024-02-16T05:55:31;17.15;;;8.68;;
41661;SDS011;27351;45.992;12.666;2024-02-16T05:57:57;15.77;;;8.33;;
41661;SDS011;27351;45.992;12.666;2024-02-16T06:00:23;18.13;;;8.83;;
41661;SDS011;27351;45.992;12.666;2024-02-16T06:02:49;20.83;;;9.30;;
41661;SDS011;27351;45.992;12.666;2024-02-16T06:05:14;18.30;;;8.93;;
41661;SDS011;27351;45.992;12.666;2024-02-16T06:07:40;17.75;;;8.35;;
41661;SDS011;27351;45.992;12.666;2024-02-16T06:10:06;18.65;;;9.18;;
41661;SDS011;27351;45.992;12.666;2024-02-16T06:12:36;15.45;;;8.40;;
41661;SDS011;27351;45.992;12.666;2024-02-16T06:15:02;20.00;;;9.05;;
41661;SDS011;27351;45.992;12.666;2024-02-16T06:17:27;17.77;;;9.13;;
41661;SDS011;27351;45.992;12.666;2024-02-16T06:19:53;19.43;;;8.87;;
41661;SDS011;27351;45.992;12.666;2024-02-16T06:22:18;16.47;;;8.30;;
41661;SDS011;27351;45.992;12.666;2024-02-16T06:24:44;16.92;;;8.57;;
41661;SDS011;27351;45.992;12.666;2024-02-16T06:27:10;19.23;;;10.07;;
41661;SDS011;27351;45.992;12.666;2024-02-16T06:29:36;21.58;;;10.20;;
41661;SDS011;27351;45.992;12.666;2024-02-16T06:32:02;18.60;;;8.80;;
41661;SDS011;27351;45.992;12.666;2024-02-16T06:34:27;18.67;;;9.83;;
41661;SDS011;27351;45.992;12.666;2024-02-16T06:36:53;17.33;;;9.03;;
41661;SDS011;27351;45.992;12.666;2024-02-16T06:39:19;18.57;;;8.97;;
41661;SDS011;27351;45.992;12.666;2024-02-16T06:41:45;23.48;;;9.43;;
41661;SDS011;27351;45.992;12.666;2024-02-16T06:44:11;18.85;;;9.15;;
41661;SDS011;27351;45.992;12.666;2024-02-16T06:46:37;16.40;;;8.63;;
41661;SDS011;27351;45.992;12.666;2024-02-16T06:49:03;16.90;;;8.87;;
41661;SDS011;27351;45.992;12.666;2024-02-16T06:51:29;18.60;;;8.55;;
41661;SDS011;27351;45.992;12.666;2024-02-16T06:53:54;19.77;;;8.98;;
41661;SDS011;27351;45.992;12.666;2024-02-16T06:56:20;21.92;;;9.32;;
41661;SDS011;27351;45.992;12.666;2024-02-16T06:58:46;18.13;;;9.47;;
41661;SDS011;27351;45.992;12.666;2024-02-16T07:01:12;17.30;;;8.60;;
41661;SDS011;27351;45.992;12.666;2024-02-16T07:03:38;17.45;;;8.45;;
41661;SDS011;27351;45.992;12.666;2024-02-16T07:06:04;18.27;;;9.27;;
41661;SDS011;27351;45.992;12.666;2024-02-16T07:08:29;18.05;;;9.20;;
41661;SDS011;27351;45.992;12.666;2024-02-16T07:10:55;19.55;;;8.40;;
41661;SDS011;27351;45.992;12.666;2024-02-16T07:13:22;17.03;;;9.10;;
41661;SDS011;27351;45.992;12.666;2024-02-16T07:15:47;16.15;;;8.13;;
41661;SDS011;27351;45.992;12.666;2024-02-16T07:18:13;17.60;;;8.55;;
41661;SDS011;27351;45.992;12.666;2024-02-16T07:20:39;15.82;;;7.63;;
41661;SDS011;27351;45.992;12.666;2024-02-16T07:23:05;15.63;;;8.38;;
41661;SDS011;27351;45.992;12.666;2024-02-16T07:25:30;17.75;;;9.77;;
41661;SDS011;27351;45.992;12.666;2024-02-16T07:27:56;20.40;;;10.43;;
41661;SDS011;27351;45.992;12.666;2024-02-16T07:30:21;18.90;;;9.35;;
41661;SDS011;27351;45.992;12.666;2024-02-16T07:32:50;19.17;;;9.75;;
41661;SDS011;27351;45.992;12.666;2024-02-16T07:35:17;21.65;;;10.68;;
41661;SDS011;27351;45.992;12.666;2024-02-16T07:37:43;18.05;;;9.90;;
41661;SDS011;27351;45.992;12.666;2024-02-16T07:40:09;19.88;;;10.95;;
41661;SDS011;27351;45.992;12.666;2024-02-16T07:42:38;19.17;;;11.18;;
41661;SDS011;27351;45.992;12.666;2024-02-16T07:45:05;19.92;;;11.13;;
41661;SDS011;27351;45.992;12.666;2024-02-16T07:47:31;24.02;;;12.45;;
41661;SDS011;27351;45.992;12.666;2024-02-16T07:49:57;21.10;;;12.25;;
41661;SDS011;27351;45.992;12.666;2024-02-16T07:52:22;20.80;;;12.13;;
41661;SDS011;27351;45.992;12.666;2024-02-16T07:54:48;23.40;;;12.95;;
41661;SDS011;27351;45.992;12.666;2024-02-16T07:57:17;22.88;;;12.07;;
41661;SDS011;27351;45.992;12.666;2024-02-16T07:59:42;22.58;;;12.07;;
41661;SDS011;27351;45.992;12.666;2024-02-16T08:02:09;22.13;;;12.18;;
41661;SDS011;27351;45.992;12.666;2024-02-16T08:04:34;21.65;;;11.25;;
41661;SDS011;27351;45.992;12.666;2024-02-16T08:07:01;20.30;;;11.68;;
41661;SDS011;27351;45.992;12.666;2024-02-16T08:09:26;17.93;;;11.13;;
41661;SDS011;27351;45.992;12.666;2024-02-16T08:11:52;20.02;;;11.57;;
41661;SDS011;27351;45.992;12.666;2024-02-16T08:14:18;25.70;;;13.37;;
41661;SDS011;27351;45.992;12.666;2024-02-16T08:16:43;20.03;;;12.57;;
41661;SDS011;27351;45.992;12.666;2024-02-16T08:19:09;21.43;;;11.70;;
41661;SDS011;27351;45.992;12.666;2024-02-16T08:21:34;23.43;;;12.80;;
41661;SDS011;27351;45.992;12.666;2024-02-16T08:24:00;23.77;;;12.83;;
41661;SDS011;27351;45.992;12.666;2024-02-16T08:26:26;25.77;;;13.53;;
41661;SDS011;27351;45.992;12.666;2024-02-16T08:28:51;20.40;;;11.52;;
41661;SDS011;27351;45.992;12.666;2024-02-16T08:31:17;22.70;;;11.45;;
41661;SDS011;27351;45.992;12.666;2024-02-16T08:33:46;20.95;;;12.25;;
41661;SDS011;27351;45.992;12.666;2024-02-16T08:36:12;23.45;;;12.52;;
41661;SDS011;27351;45.992;12.666;2024-02-16T08:38:37;26.57;;;12.97;;
41661;SDS011;27351;45.992;12.666;2024-02-16T08:41:03;22.47;;;12.43;;
41661;SDS011;27351;45.992;12.666;2024-02-16T08:43:29;25.70;;;14.87;;
41661;SDS011;27351;45.992;12.666;2024-02-16T08:45:54;24.10;;;13.10;;
41661;SDS011;27351;45.992;12.666;2024-02-16T08:48:20;27.23;;;13.90;;
41661;SDS011;27351;45.992;12.666;2024-02-16T08:50:45;26.13;;;13.73;;
41661;SDS011;27351;45.992;12.666;2024-02-16T08:53:11;25.20;;;14.10;;
41661;SDS011;27351;45.992;12.666;2024-02-16T08:55:36;23.63;;;13.68;;
41661;SDS011;27351;45.992;12.666;2024-02-16T08:58:02;27.83;;;14.88;;
41661;SDS011;27351;45.992;12.666;2024-02-16T09:00:28;26.55;;;15.05;;
41661;SDS011;27351;45.992;12.666;2024-02-16T09:02:53;26.23;;;15.27;;
41661;SDS011;27351;45.992;12.666;2024-02-16T09:05:19;28.98;;;16.50;;
41661;SDS011;27351;45.992;12.666;2024-02-16T09:07:45;29.48;;;16.67;;
41661;SDS011;27351;45.992;12.666;2024-02-16T09:10:12;28.58;;;16.92;;
41661;SDS011;27351;45.992;12.666;2024-02-16T09:12:39;27.25;;;15.82;;
41661;SDS011;27351;45.992;12.666;2024-02-16T09:15:05;26.75;;;15.85;;
41661;SDS011;27351;45.992;12.666;2024-02-16T09:17:31;30.80;;;16.92;;
41661;SDS011;27351;45.992;12.666;2024-02-16T09:19:57;30.57;;;16.80;;
41661;SDS011;27351;45.992;12.666;2024-02-16T09:22:23;28.23;;;15.93;;
41661;SDS011;27351;45.992;12.666;2024-02-16T09:24:48;29.07;;;17.27;;
41661;SDS011;27351;45.992;12.666;2024-02-16T09:27:14;30.87;;;16.87;;
41661;SDS011;27351;45.992;12.666;2024-02-16T09:29:39;27.83;;;15.93;;
41661;SDS011;27351;45.992;12.666;2024-02-16T09:32:05;28.70;;;16.80;;
41661;SDS011;27351;45.992;12.666;2024-02-16T09:34:31;33.80;;;16.75;;
41661;SDS011;27351;45.992;12.666;2024-02-16T09:36:57;27.25;;;15.70;;
41661;SDS011;27351;45.992;12.666;2024-02-16T09:39:22;27.92;;;17.75;;
41661;SDS011;27351;45.992;12.666;2024-02-16T09:41:50;29.42;;;17.50;;
41661;SDS011;27351;45.992;12.666;2024-02-16T09:44:16;26.45;;;15.85;;
41661;SDS011;27351;45.992;12.666;2024-02-16T09:46:42;24.50;;;15.07;;
41661;SDS011;27351;45.992;12.666;2024-02-16T09:49:07;26.08;;;14.88;;
41661;SDS011;27351;45.992;12.666;2024-02-16T09:51:35;26.95;;;15.77;;
41661;SDS011;27351;45.992;12.666;2024-02-16T09:54:01;28.95;;;17.75;;
41661;SDS011;27351;45.992;12.666;2024-02-16T09:56:26;27.40;;;16.97;;
41661;SDS011;27351;45.992;12.666;2024-02-16T09:58:53;26.85;;;17.05;;
41661;SDS011;27351;45.992;12.666;2024-02-16T10:01:20;30.90;;;18.15;;
41661;SDS011;27351;45.992;12.666;2024-02-16T10:03:46;32.70;;;17.85;;
41661;SDS011;27351;45.992;12.666;2024-02-16T10:06:12;28.15;;;17.85;;
41661;SDS011;27351;45.992;12.666;2024-02-16T10:08:47;29.70;;;18.23;;
41661;SDS011;27351;45.992;12.666;2024-02-16T10:11:16;31.13;;;18.50;;
41661;SDS011;27351;45.992;12.666;2024-02-16T10:13:54;30.90;;;18.52;;
41661;SDS011;27351;45.992;12.666;2024-02-16T10:16:20;28.08;;;17.98;;
41661;SDS011;27351;45.992;12.666;2024-02-16T10:18:45;32.08;;;18.35;;
41661;SDS011;27351;45.992;12.666;2024-02-16T10:21:11;36.08;;;19.52;;
41661;SDS011;27351;45.992;12.666;2024-02-16T10:23:36;37.23;;;20.43;;
41661;SDS011;27351;45.992;12.666;2024-02-16T10:26:02;30.63;;;17.50;;
41661;SDS011;27351;45.992;12.666;2024-02-16T10:28:28;31.95;;;17.92;;
41661;SDS011;27351;45.992;12.666;2024-02-16T10:30:59;32.55;;;18.63;;
41661;SDS011;27351;45.992;12.666;2024-02-16T10:33:28;30.15;;;17.90;;
41661;SDS011;27351;45.992;12.666;2024-02-16T10:35:56;30.13;;;17.88;;
41661;SDS011;27351;45.992;12.666;2024-02-16T10:38:23;33.33;;;18.40;;
41661;SDS011;27351;45.992;12.666;2024-02-16T10:40:49;34.03;;;18.02;;
41661;SDS011;27351;45.992;12.666;2024-02-16T10:43:16;29.38;;;18.13;;
41661;SDS011;27351;45.992;12.666;2024-02-16T10:45:43;30.63;;;17.23;;
41661;SDS011;27351;45.992;12.666;2024-02-16T10:48:10;34.92;;;18.05;;
41661;SDS011;27351;45.992;12.666;2024-02-16T10:50:36;33.72;;;17.85;;
41661;SDS011;27351;45.992;12.666;2024-02-16T10:53:04;36.63;;;21.67;;
41661;SDS011;27351;45.992;12.666;2024-02-16T10:55:32;37.95;;;20.33;;
41661;SDS011;27351;45.992;12.666;2024-02-16T10:57:57;34.97;;;19.03;;
41661;SDS011;27351;45.992;12.666;2024-02-16T11:00:24;30.95;;;18.25;;
41661;SDS011;27351;45.992;12.666;2024-02-16T11:02:53;31.87;;;18.27;;
41661;SDS011;27351;45.992;12.666;2024-02-16T11:05:31;35.80;;;19.90;;
41661;SDS011;27351;45.992;12.666;2024-02-16T11:08:00;39.97;;;20.83;;
41661;SDS011;27351;45.992;12.666;2024-02-16T11:10:26;40.22;;;21.73;;
41661;SDS011;27351;45.992;12.666;2024-02-16T11:12:52;35.67;;;20.23;;
41661;SDS011;27351;45.992;12.666;2024-02-16T11:15:28;41.53;;;20.85;;
41661;SDS011;27351;45.992;12.666;2024-02-16T11:17:55;42.70;;;21.98;;
41661;SDS011;27351;45.992;12.666;2024-02-16T11:20:23;37.35;;;20.95;;
41661;SDS011;27351;45.992;12.666;2024-02-16T11:22:50;39.15;;;19.95;;
41661;SDS011;27351;45.992;12.666;2024-02-16T11:25:16;37.35;;;20.08;;
41661;SDS011;27351;45.992;12.666;2024-02-16T11:27:42;34.47;;;18.77;;
41661;SDS011;27351;45.992;12.666;2024-02-16T11:30:12;37.90;;;20.02;;
41661;SDS011;27351;45.992;12.666;2024-02-16T11:32:37;39.95;;;20.35;;
41661;SDS011;27351;45.992;12.666;2024-02-16T11:35:06;40.17;;;19.37;;
41661;SDS011;27351;45.992;12.666;2024-02-16T11:37:32;39.35;;;20.55;;
41661;SDS011;27351;45.992;12.666;2024-02-16T11:39:58;39.67;;;20.85;;
41661;SDS011;27351;45.992;12.666;2024-02-16T11:42:23;39.80;;;20.48;;
41661;SDS011;27351;45.992;12.666;2024-02-16T11:44:52;39.83;;;20.38;;
41661;SDS011;27351;45.992;12.666;2024-02-16T11:47:19;39.40;;;20.73;;
41661;SDS011;27351;45.992;12.666;2024-02-16T11:49:44;35.33;;;19.63;;
41661;SDS011;27351;45.992;12.666;2024-02-16T11:52:10;37.22;;;20.58;;
41661;SDS011;27351;45.992;12.666;2024-02-16T11:54:35;43.35;;;22.58;;
41661;SDS011;27351;45.992;12.666;2024-02-16T11:57:02;43.90;;;23.02;;
41661;SDS011;27351;45.992;12.666;2024-02-16T11:59:28;47.63;;;22.70;;
41661;SDS011;27351;45.992;12.666;2024-02-16T12:01:56;44.03;;;23.00;;
41661;SDS011;27351;45.992;12.666;2024-02-16T12:04:23;42.38;;;22.73;;
41661;SDS011;27351;45.992;12.666;2024-02-16T12:06:54;42.83;;;22.92;;
41661;SDS011;27351;45.992;12.666;2024-02-16T12:09:20;42.55;;;23.58;;
41661;SDS011;27351;45.992;12.666;2024-02-16T12:11:48;40.03;;;20.97;;
41661;SDS011;27351;45.992;12.666;2024-02-16T12:14:15;38.80;;;20.25;;
41661;SDS011;27351;45.992;12.666;2024-02-16T12:16:41;37.03;;;19.42;;
41661;SDS011;27351;45.992;12.666;2024-02-16T12:19:07;37.72;;;20.75;;
41661;SDS011;27351;45.992;12.666;2024-02-16T12:21:33;38.17;;;19.95;;
41661;SDS011;27351;45.992;12.666;2024-02-16T12:23:59;38.45;;;19.02;;
41661;SDS011;27351;45.992;12.666;2024-02-16T12:26:24;36.50;;;19.10;;
41661;SDS011;27351;45.992;12.666;2024-02-16T12:28:50;37.40;;;17.73;;
41661;SDS011;27351;45.992;12.666;2024-02-16T12:31:22;37.95;;;18.10;;
41661;SDS011;27351;45.992;12.666;2024-02-16T12:33:48;33.90;;;19.50;;
41661;SDS011;27351;45.992;12.666;2024-02-16T12:36:13;35.33;;;18.33;;
41661;SDS011;27351;45.992;12.666;2024-02-16T12:38:40;35.70;;;18.87;;
41661;SDS011;27351;45.992;12.666;2024-02-16T12:41:05;40.35;;;20.25;;
41661;SDS011;27351;45.992;12.666;2024-02-16T12:43:31;40.60;;;21.02;;
41661;SDS011;27351;45.992;12.666;2024-02-16T12:45:57;40.20;;;20.00;;
41661;SDS011;27351;45.992;12.666;2024-02-16T12:48:25;39.22;;;20.15;;
41661;SDS011;27351;45.992;12.666;2024-02-16T12:50:51;38.00;;;19.48;;
41661;SDS011;27351;45.992;12.666;2024-02-16T12:53:17;38.15;;;19.33;;
41661;SDS011;27351;45.992;12.666;2024-02-16T12:55:43;34.60;;;18.70;;
41661;SDS011;27351;45.992;12.666;2024-02-16T12:58:09;35.58;;;18.75;;
41661;SDS011;27351;45.992;12.666;2024-02-16T13:00:35;33.95;;;17.55;;
41661;SDS011;27351;45.992;12.666;2024-02-16T13:03:00;38.80;;;17.67;;
41661;SDS011;27351;45.992;12.666;2024-02-16T13:05:26;38.77;;;19.50;;
41661;SDS011;27351;45.992;12.666;2024-02-16T13:07:52;37.25;;;19.08;;
41661;SDS011;27351;45.992;12.666;2024-02-16T13:10:18;42.10;;;20.92;;
41661;SDS011;27351;45.992;12.666;2024-02-16T13:12:44;37.35;;;19.73;;
41661;SDS011;27351;45.992;12.666;2024-02-16T13:15:10;36.78;;;17.42;;
41661;SDS011;27351;45.992;12.666;2024-02-16T13:17:36;33.83;;;17.97;;
41661;SDS011;27351;45.992;12.666;2024-02-16T13:20:01;31.90;;;16.17;;
41661;SDS011;27351;45.992;12.666;2024-02-16T13:22:37;31.13;;;16.10;;
41661;SDS011;27351;45.992;12.666;2024-02-16T13:25:03;29.87;;;15.87;;
41661;SDS011;27351;45.992;12.666;2024-02-16T13:27:29;32.95;;;16.70;;
41661;SDS011;27351;45.992;12.666;2024-02-16T13:29:55;34.63;;;16.98;;
41661;SDS011;27351;45.992;12.666;2024-02-16T13:32:20;30.08;;;15.63;;
41661;SDS011;27351;45.992;12.666;2024-02-16T13:34:46;35.63;;;18.55;;
41661;SDS011;27351;45.992;12.666;2024-02-16T13:37:12;35.10;;;17.38;;
41661;SDS011;27351;45.992;12.666;2024-02-16T13:39:39;37.30;;;19.08;;
41661;SDS011;27351;45.992;12.666;2024-02-16T13:42:05;37.15;;;18.58;;
41661;SDS011;27351;45.992;12.666;2024-02-16T13:44:30;30.00;;;15.95;;
41661;SDS011;27351;45.992;12.666;2024-02-16T13:46:56;29.42;;;16.08;;
41661;SDS011;27351;45.992;12.666;2024-02-16T13:49:23;31.10;;;15.85;;
41661;SDS011;27351;45.992;12.666;2024-02-16T13:51:48;30.98;;;16.63;;
41661;SDS011;27351;45.992;12.666;2024-02-16T13:54:14;29.58;;;15.75;;
41661;SDS011;27351;45.992;12.666;2024-02-16T13:56:40;29.98;;;15.30;;
41661;SDS011;27351;45.992;12.666;2024-02-16T13:59:06;29.63;;;15.27;;
41661;SDS011;27351;45.992;12.666;2024-02-16T14:01:34;31.85;;;16.20;;
41661;SDS011;27351;45.992;12.666;2024-02-16T14:04:00;32.55;;;15.75;;